createdAt,value
2022-12-26T00:01:26.849Z,100165.97
2022-12-26T00:04:51.248Z,100172.03
2022-12-26T00:08:08.149Z,100161.16
2022-12-26T00:11:17.670Z,100166.34
2022-12-26T00:14:21.109Z,100155.66
2022-12-26T00:17:26.300Z,100160.47
2022-12-26T00:20:41.036Z,100154.41
2022-12-26T00:23:44.716Z,100157.66
2022-12-26T00:26:55.642Z,100152.75
2022-12-26T00:30:04.500Z,100134.38
2022-12-26T00:33:44.343Z,100135.19
2022-12-26T00:36:54.778Z,100141.00
2022-12-26T00:39:59.561Z,100144.03
2022-12-26T00:43:05.699Z,100141.94
2022-12-26T00:46:10.228Z,100145.03
2022-12-26T00:49:14.708Z,100130.19
2022-12-26T00:52:18.032Z,100116.38
2022-12-26T00:55:21.359Z,100117.19
2022-12-26T00:58:25.671Z,100122.97
2022-12-26T01:01:31.143Z,100125.94
2022-12-26T01:04:39.798Z,100112.84
2022-12-26T01:08:22.878Z,100106.59
2022-12-26T01:11:10.954Z,100109.31
2022-12-26T01:14:19.065Z,100105.56
2022-12-26T01:17:22.539Z,100101.63
2022-12-26T01:20:29.197Z,100085.81
2022-12-26T01:23:32.450Z,100086.75
2022-12-26T01:26:35.554Z,100089.97
2022-12-26T01:29:38.573Z,100088.91
2022-12-26T01:32:44.263Z,100093.59
2022-12-26T01:35:53.580Z,100102.66
2022-12-26T01:38:56.758Z,100094.44
2022-12-26T01:42:02.913Z,100095.53
2022-12-26T01:45:19.211Z,100085.16
2022-12-26T01:48:26.035Z,100077.56
2022-12-26T01:51:42.331Z,100084.22
2022-12-26T01:54:49.473Z,100080.16
2022-12-26T01:58:01.888Z,100070.03
2022-12-26T02:01:09.051Z,100068.59
2022-12-26T02:04:34.549Z,100082.50
2022-12-26T02:07:43.019Z,100088.34
2022-12-26T02:10:54.914Z,100071.00
2022-12-26T02:14:00.739Z,100079.31
2022-12-26T02:17:04.476Z,100082.34
2022-12-26T02:20:18.800Z,100075.66
2022-12-26T02:24:32.323Z,100071.56
2022-12-26T02:28:02.615Z,100062.41
2022-12-26T02:31:14.568Z,100060.88
2022-12-26T02:34:24.365Z,100057.22
2022-12-26T02:37:46.053Z,100057.00
2022-12-26T02:41:06.096Z,100058.28
2022-12-26T02:44:38.978Z,100067.84
2022-12-26T02:47:56.640Z,100053.56
2022-12-26T02:51:28.981Z,100050.16
2022-12-26T02:54:56.613Z,100059.72
2022-12-26T02:58:26.364Z,100051.22
2022-12-26T03:01:52.571Z,100064.19
2022-12-26T03:05:19.113Z,100068.44
2022-12-26T03:08:48.198Z,100066.56
2022-12-26T03:12:15.750Z,100056.88
2022-12-26T03:15:22.164Z,100063.63
2022-12-26T03:18:58.417Z,100068.47
2022-12-26T03:21:52.762Z,100062.34
2022-12-26T03:25:17.378Z,100059.53
2022-12-26T03:28:20.934Z,100055.97
2022-12-26T03:31:23.147Z,100063.16
2022-12-26T03:34:28.391Z,100072.75
2022-12-26T03:37:50.218Z,100070.28
2022-12-26T03:41:19.635Z,100065.09
2022-12-26T03:44:53.951Z,100054.72
2022-12-26T03:48:25.450Z,100059.91
2022-12-26T03:52:13.513Z,100057.66
2022-12-26T03:55:44.084Z,100063.44
2022-12-26T03:59:14.590Z,100056.97
2022-12-26T04:02:37.548Z,100070.66
2022-12-26T04:06:03.548Z,100051.78
2022-12-26T04:09:31.265Z,100049.41
2022-12-26T04:13:01.265Z,100069.97
2022-12-26T04:16:33.040Z,100086.75
2022-12-26T04:20:07.545Z,100083.94
2022-12-26T04:23:33.560Z,100072.56
2022-12-26T04:27:02.215Z,100059.81
2022-12-26T04:30:26.236Z,100065.34
2022-12-26T04:34:02.388Z,100066.44
2022-12-26T04:37:28.319Z,100078.81
2022-12-26T04:40:53.694Z,100075.41
2022-12-26T04:44:06.694Z,100082.25
2022-12-26T04:47:12.131Z,100089.22
2022-12-26T04:50:15.478Z,100088.88
2022-12-26T04:53:19.189Z,100080.13
2022-12-26T04:56:22.440Z,100082.25
2022-12-26T04:59:26.297Z,100076.22
2022-12-26T05:02:48.752Z,100080.47
2022-12-26T05:06:11.397Z,100083.19
2022-12-26T05:09:39.427Z,100083.19
2022-12-26T05:12:42.475Z,100092.44
2022-12-26T05:16:03.571Z,100085.81
2022-12-26T05:19:29.575Z,100101.66
2022-12-26T05:22:53.854Z,100112.06
2022-12-26T05:26:17.039Z,100109.34
2022-12-26T05:29:20.207Z,100109.22
2022-12-26T05:32:40.717Z,100117.28
2022-12-26T05:35:45.205Z,100112.88
2022-12-26T05:38:49.218Z,100118.91
2022-12-26T05:41:55.152Z,100120.56
2022-12-26T05:44:58.201Z,100127.66
2022-12-26T05:48:02.391Z,100132.97
2022-12-26T05:51:07.081Z,100131.56
2022-12-26T05:54:10.123Z,100133.81
2022-12-26T05:57:13.320Z,100139.03
2022-12-26T06:00:18.481Z,100139.03
2022-12-26T06:03:21.590Z,100148.34
2022-12-26T06:06:27.441Z,100140.19
2022-12-26T06:09:30.561Z,100136.88
2022-12-26T06:12:34.326Z,100148.22
2022-12-26T06:15:39.613Z,100153.56
2022-12-26T06:18:43.303Z,100156.16
2022-12-26T06:21:47.759Z,100157.13
2022-12-26T06:24:51.071Z,100159.59
2022-12-26T06:27:54.344Z,100161.03
2022-12-26T06:31:04.390Z,100166.91
2022-12-26T06:34:07.585Z,100163.63
2022-12-26T06:37:12.005Z,100162.88
2022-12-26T06:40:15.340Z,100181.22
2022-12-26T06:43:21.257Z,100195.78
2022-12-26T06:46:28.706Z,100206.66
2022-12-26T06:49:33.272Z,100197.91
2022-12-26T06:52:40.940Z,100205.47
2022-12-26T06:55:47.171Z,100208.81
2022-12-26T06:58:54.751Z,100223.69
2022-12-26T07:02:06.483Z,100220.13
2022-12-26T07:05:10.038Z,100243.66
2022-12-26T07:08:14.489Z,100244.50
2022-12-26T07:11:20.134Z,100241.41
2022-12-26T07:14:23.183Z,100234.09
2022-12-26T07:17:26.223Z,100236.59
2022-12-26T07:20:29.328Z,100239.28
2022-12-26T07:23:34.101Z,100247.34
2022-12-26T07:26:37.517Z,100244.75
2022-12-26T07:29:40.866Z,100246.50
2022-12-26T07:32:48.294Z,100243.53
2022-12-26T07:35:52.804Z,100246.59
2022-12-26T07:38:59.756Z,100245.56
2022-12-26T07:42:07.089Z,100244.50
2022-12-26T07:45:11.099Z,100243.44
2022-12-26T07:48:14.237Z,100237.63
2022-12-26T07:51:20.115Z,100250.97
2022-12-26T07:54:28.576Z,100255.59
2022-12-26T07:57:49.523Z,100267.66
2022-12-26T08:00:52.956Z,100279.84
2022-12-26T08:03:56.085Z,100286.81
2022-12-26T08:06:59.424Z,100276.63
2022-12-26T08:10:04.257Z,100278.53
2022-12-26T08:13:09.787Z,100273.91
2022-12-26T08:16:14.990Z,100267.66
2022-12-26T08:19:21.394Z,100272.88
2022-12-26T08:22:28.278Z,100269.53
2022-12-26T08:25:32.794Z,100263.91
2022-12-26T08:28:36.213Z,100264.72
2022-12-26T08:31:39.864Z,100275.00
2022-12-26T08:34:43.196Z,100271.47
2022-12-26T08:37:48.292Z,100271.34
2022-12-26T08:40:57.405Z,100270.16
2022-12-26T08:44:26.123Z,100275.16
2022-12-26T08:47:27.560Z,100272.06
2022-12-26T08:50:30.861Z,100272.91
2022-12-26T08:53:40.248Z,100266.41
2022-12-26T08:56:47.156Z,100277.63
2022-12-26T08:59:50.539Z,100270.78
2022-12-26T09:02:53.932Z,100274.09
2022-12-26T09:06:05.912Z,100284.50
2022-12-26T09:09:17.043Z,100291.34
2022-12-26T09:12:21.766Z,100297.06
2022-12-26T09:15:25.080Z,100298.84
2022-12-26T09:18:28.134Z,100307.47
2022-12-26T09:21:31.871Z,100305.59
2022-12-26T09:24:37.622Z,100313.91
2022-12-26T09:27:45.176Z,100319.09
2022-12-26T09:30:48.662Z,100318.50
2022-12-26T09:33:55.488Z,100316.03
2022-12-26T09:37:02.087Z,100315.31
2022-12-26T09:40:07.000Z,100317.22
2022-12-26T09:43:23.089Z,100307.50
2022-12-26T09:46:33.759Z,100303.03
2022-12-26T09:49:44.689Z,100310.00
2022-12-26T09:52:54.295Z,100305.63
2022-12-26T09:56:06.034Z,100303.59
2022-12-26T09:59:19.305Z,100301.72
2022-12-26T10:02:25.308Z,100296.19
2022-12-26T10:05:37.258Z,100311.56
2022-12-26T10:09:10.787Z,100324.91
2022-12-26T10:12:34.879Z,100344.25
2022-12-26T10:15:52.282Z,100345.41
2022-12-26T10:19:06.340Z,100346.59
2022-12-26T10:22:50.034Z,100359.88
2022-12-26T10:25:58.599Z,100370.03
2022-12-26T10:29:18.821Z,100367.19
2022-12-26T10:32:30.946Z,100374.41
2022-12-26T10:35:41.549Z,100369.31
2022-12-26T10:38:50.317Z,100368.16
2022-12-26T10:42:00.948Z,100361.28
2022-12-26T10:45:15.644Z,100367.81
2022-12-26T10:48:28.980Z,100361.72
2022-12-26T10:51:32.632Z,100359.25
2022-12-26T10:54:36.080Z,100364.47
2022-12-26T10:57:41.463Z,100383.50
2022-12-26T11:00:47.458Z,100386.38
2022-12-26T11:03:59.906Z,100368.16
2022-12-26T11:07:19.841Z,100370.75
2022-12-26T11:10:27.397Z,100396.31
2022-12-26T11:13:38.094Z,100396.19
2022-12-26T11:16:54.989Z,100391.44
2022-12-26T11:20:27.811Z,100394.84
2022-12-26T11:23:41.403Z,100393.91
2022-12-26T11:26:48.104Z,100392.72
2022-12-26T11:30:13.011Z,100398.13
2022-12-26T11:33:25.988Z,100390.31
2022-12-26T11:36:32.755Z,100374.84
2022-12-26T11:39:39.814Z,100366.16
2022-12-26T11:42:43.463Z,100371.38
2022-12-26T11:45:51.304Z,100380.34
2022-12-26T11:48:59.813Z,100394.09
2022-12-26T11:52:35.233Z,100393.72
2022-12-26T11:55:40.498Z,100398.22
2022-12-26T11:58:45.272Z,100394.69
2022-12-26T12:01:51.554Z,100405.69
2022-12-26T12:05:01.398Z,100403.09
2022-12-26T12:08:27.317Z,100397.78
2022-12-26T12:11:42.397Z,100403.81
2022-12-26T12:15:01.690Z,100401.31
2022-12-26T12:18:19.756Z,100399.44
2022-12-26T12:21:33.133Z,100391.88
2022-12-26T12:24:57.552Z,100382.00
2022-12-26T12:28:17.867Z,100382.00
2022-12-26T12:31:33.072Z,100382.00
2022-12-26T12:35:03.571Z,100377.34
2022-12-26T12:38:40.089Z,100377.22
2022-12-26T12:42:06.370Z,100361.59
2022-12-26T12:45:27.795Z,100351.94
2022-12-26T12:48:52.157Z,100356.22
2022-12-26T12:52:14.596Z,100348.06
2022-12-26T12:56:00.789Z,100351.38
2022-12-26T12:59:15.582Z,100353.16
2022-12-26T13:02:26.807Z,100360.97
2022-12-26T13:05:45.817Z,100365.97
2022-12-26T13:08:54.317Z,100364.50
2022-12-26T13:12:10.972Z,100361.66
2022-12-26T13:16:35.572Z,100357.41
2022-12-26T13:20:02.450Z,100355.53
2022-12-26T13:23:29.895Z,100358.97
2022-12-26T13:26:38.676Z,100349.25
2022-12-26T13:29:44.641Z,100358.84
2022-12-26T13:32:49.811Z,100358.97
2022-12-26T13:35:59.217Z,100365.47
2022-12-26T13:39:40.577Z,100364.28
2022-12-26T13:43:09.147Z,100354.59
2022-12-26T13:46:38.657Z,100364.06
2022-12-26T13:49:43.334Z,100370.44
2022-12-26T13:52:47.605Z,100363.50
2022-12-26T13:55:55.003Z,100371.66
2022-12-26T13:59:02.193Z,100361.47
2022-12-26T14:03:23.744Z,100374.81
2022-12-26T14:07:43.287Z,100371.47
2022-12-26T14:11:03.897Z,100388.47
2022-12-26T14:14:23.174Z,100386.94
2022-12-26T14:17:48.075Z,100380.91
2022-12-26T14:21:03.501Z,100386.72
2022-12-26T14:24:39.592Z,100391.09
2022-12-26T14:27:54.324Z,100396.41
2022-12-26T14:31:12.585Z,100397.69
2022-12-26T14:34:43.021Z,100391.75
2022-12-26T14:38:02.251Z,100397.81
2022-12-26T14:41:37.393Z,100399.53
2022-12-26T14:44:44.728Z,100397.69
2022-12-26T14:47:50.294Z,100395.53
2022-12-26T14:50:55.961Z,100397.19
2022-12-26T14:54:39.598Z,100402.00
2022-12-26T14:57:49.467Z,100396.69
2022-12-26T15:00:54.603Z,100402.69
2022-12-26T15:04:00.777Z,100399.41
2022-12-26T15:07:51.171Z,100387.63
2022-12-26T15:11:37.424Z,100394.59
2022-12-26T15:15:26.983Z,100409.97
2022-12-26T15:19:21.447Z,100407.38
2022-12-26T15:23:17.361Z,100402.06
2022-12-26T15:27:10.376Z,100403.72
2022-12-26T15:30:20.705Z,100398.19
2022-12-26T15:33:31.398Z,100383.66
2022-12-26T15:36:47.436Z,100384.81
2022-12-26T15:40:08.197Z,100386.09
2022-12-26T15:43:29.951Z,100378.81
2022-12-26T15:46:44.239Z,100369.34
2022-12-26T15:50:03.888Z,100373.00
2022-12-26T15:53:23.977Z,100376.47
2022-12-26T15:56:51.808Z,100376.34
2022-12-26T16:00:16.963Z,100375.13
2022-12-26T16:03:43.663Z,100372.25
2022-12-26T16:07:10.843Z,100384.72
2022-12-26T16:10:32.057Z,100377.00
2022-12-26T16:13:35.752Z,100370.56
2022-12-26T16:16:41.932Z,100389.81
2022-12-26T16:19:48.384Z,100375.16
2022-12-26T16:22:50.479Z,100387.63
2022-12-26T16:25:56.324Z,100378.69
2022-12-26T16:29:02.238Z,100376.19
2022-12-26T16:32:07.467Z,100366.53
2022-12-26T16:35:21.390Z,100376.19
2022-12-26T16:38:30.799Z,100366.63
2022-12-26T16:41:34.514Z,100366.31
2022-12-26T16:44:39.810Z,100370.84
2022-12-26T16:47:49.910Z,100367.00
2022-12-26T16:50:58.132Z,100374.69
2022-12-26T16:54:27.739Z,100382.16
2022-12-26T16:57:36.341Z,100383.09
2022-12-26T17:00:39.711Z,100393.16
2022-12-26T17:03:52.150Z,100395.47
2022-12-26T17:07:07.040Z,100406.63
2022-12-26T17:10:24.217Z,100420.56
2022-12-26T17:13:29.808Z,100425.06
2022-12-26T17:16:34.052Z,100435.75
2022-12-26T17:19:38.392Z,100436.56
2022-12-26T17:22:44.935Z,100441.19
2022-12-26T17:25:50.916Z,100448.44
2022-12-26T17:28:54.482Z,100455.91
2022-12-26T17:31:57.623Z,100456.03
2022-12-26T17:35:08.699Z,100467.31
2022-12-26T17:38:23.832Z,100479.81
2022-12-26T17:41:26.973Z,100485.13
2022-12-26T17:44:39.297Z,100492.50
2022-12-26T17:47:42.475Z,100504.78
2022-12-26T17:50:50.374Z,100504.78
2022-12-26T17:53:54.753Z,100510.41
2022-12-26T17:56:57.792Z,100521.66
2022-12-26T18:00:00.887Z,100536.50
2022-12-26T18:03:04.014Z,100543.78
2022-12-26T18:06:07.367Z,100553.97
2022-12-26T18:09:25.265Z,100556.25
2022-12-26T18:12:28.487Z,100553.34
2022-12-26T18:15:32.858Z,100554.47
2022-12-26T18:18:38.350Z,100544.19
2022-12-26T18:21:41.580Z,100564.25
2022-12-26T18:24:46.583Z,100565.78
2022-12-26T18:27:51.648Z,100572.13
2022-12-26T18:30:55.154Z,100569.00
2022-12-26T18:33:58.791Z,100567.63
2022-12-26T18:37:01.805Z,100569.81
2022-12-26T18:40:11.515Z,100565.19
2022-12-26T18:43:15.487Z,100574.97
2022-12-26T18:46:20.583Z,100589.91
2022-12-26T18:49:25.776Z,100582.22
2022-12-26T18:52:29.063Z,100583.44
2022-12-26T18:55:33.909Z,100589.13
2022-12-26T18:58:36.910Z,100603.31
2022-12-26T19:01:39.964Z,100613.75
2022-12-26T19:04:43.413Z,100623.38
2022-12-26T19:07:48.276Z,100635.78
2022-12-26T19:10:55.598Z,100634.69
2022-12-26T19:14:00.770Z,100635.25
2022-12-26T19:17:03.894Z,100650.97
2022-12-26T19:20:09.254Z,100660.72
2022-12-26T19:23:12.683Z,100684.31
2022-12-26T19:26:19.944Z,100698.66
2022-12-26T19:29:23.641Z,100712.56
2022-12-26T19:32:26.827Z,100711.16
2022-12-26T19:35:29.871Z,100710.78
2022-12-26T19:38:33.083Z,100722.41
2022-12-26T19:41:37.437Z,100735.00
2022-12-26T19:44:42.961Z,100740.53
2022-12-26T19:47:47.547Z,100746.06
2022-12-26T19:50:50.722Z,100753.41
2022-12-26T19:53:59.777Z,100761.28
2022-12-26T19:57:10.673Z,100760.63
2022-12-26T20:00:16.986Z,100762.63
2022-12-26T20:03:20.290Z,100771.50
2022-12-26T20:06:26.085Z,100792.38
2022-12-26T20:09:31.876Z,100777.03
2022-12-26T20:12:36.341Z,100774.75
2022-12-26T20:15:42.508Z,100782.84
2022-12-26T20:18:47.662Z,100780.44
2022-12-26T20:21:51.316Z,100785.63
2022-12-26T20:24:54.563Z,100802.91
2022-12-26T20:28:02.145Z,100805.66
2022-12-26T20:31:12.950Z,100810.44
2022-12-26T20:34:16.436Z,100804.41
2022-12-26T20:37:19.468Z,100808.22
2022-12-26T20:40:25.266Z,100814.75
2022-12-26T20:43:30.417Z,100818.22
2022-12-26T20:46:37.755Z,100815.22
2022-12-26T20:49:44.895Z,100822.22
2022-12-26T20:52:48.222Z,100836.06
2022-12-26T20:55:51.661Z,100861.09
2022-12-26T20:59:01.051Z,100860.44
2022-12-26T21:02:04.212Z,100860.59
2022-12-26T21:05:08.013Z,100863.16
2022-12-26T21:08:11.885Z,100869.28
2022-12-26T21:11:20.496Z,100867.09
2022-12-26T21:14:25.209Z,100872.53
2022-12-26T21:17:28.348Z,100894.31
2022-12-26T21:20:32.107Z,100904.06
2022-12-26T21:23:36.570Z,100911.03
2022-12-26T21:26:41.898Z,100911.34
2022-12-26T21:29:46.338Z,100904.88
2022-12-26T21:32:49.426Z,100913.59
2022-12-26T21:35:53.365Z,100921.44
2022-12-26T21:38:57.548Z,100937.78
2022-12-26T21:42:01.836Z,100930.47
2022-12-26T21:45:07.429Z,100943.19
2022-12-26T21:48:10.680Z,100953.69
2022-12-26T21:51:15.090Z,100951.94
2022-12-26T21:54:35.989Z,100979.59
2022-12-26T21:57:39.059Z,100981.50
2022-12-26T22:00:43.895Z,100985.66
2022-12-26T22:04:06.553Z,100997.97
2022-12-26T22:07:19.470Z,101010.88
2022-12-26T22:10:42.518Z,100999.72
2022-12-26T22:13:53.057Z,101010.22
2022-12-26T22:17:03.141Z,101021.22
2022-12-26T22:20:10.580Z,101026.56
2022-12-26T22:23:19.288Z,101036.91
2022-12-26T22:26:33.995Z,101045.41
2022-12-26T22:29:40.014Z,101067.13
2022-12-26T22:32:49.508Z,101070.63
2022-12-26T22:35:56.499Z,101074.13
2022-12-26T22:39:02.649Z,101081.94
2022-12-26T22:42:09.014Z,101084.66
2022-12-26T22:45:13.292Z,101094.31
2022-12-26T22:48:22.820Z,101098.59
2022-12-26T22:51:27.885Z,101101.25
2022-12-26T22:54:34.744Z,101105.66
2022-12-26T22:57:37.987Z,101112.56
2022-12-26T23:00:41.995Z,101121.91
2022-12-26T23:03:49.270Z,101123.75
2022-12-26T23:06:53.401Z,101123.59
2022-12-26T23:09:56.968Z,101137.31
2022-12-26T23:13:01.575Z,101144.25
2022-12-26T23:16:22.400Z,101143.44
2022-12-26T23:19:55.547Z,101141.69
2022-12-26T23:23:05.364Z,101157.38
2022-12-26T23:26:08.659Z,101154.75
2022-12-26T23:29:35.880Z,101153.06
2022-12-26T23:32:43.624Z,101161.78
2022-12-26T23:35:48.194Z,101158.38
2022-12-26T23:38:53.701Z,101145.56
2022-12-26T23:42:03.665Z,101158.63
2022-12-26T23:45:13.477Z,101149.19
2022-12-26T23:48:22.148Z,101156.88
2022-12-26T23:51:26.995Z,101151.84
2022-12-26T23:54:32.546Z,101153.72
2022-12-26T23:57:35.766Z,101154.56
